Otho, Iowa
Current Conditions -  °F | °C
As of 7:35 PM on Friday 28 Nov 2014 (Local Time) from KFOD Reporting Station
Clear Clear  
Wind Chill: 16°   Ceiling: Unl
Heat Index: 25°   Visibility: 8mi
Dew Point: 19°   Wind: 8mph
Humidity: 80%   Direction: 100°E
Pressure: 29.72"   Gusts: NA
Location:  42.42°N, 94.15°W
Report Text: KFOD 290135Z AUTO 10007KT 8SM CLR M04/M07 A2972 RMK AO1
Loading
Personal Weather Stations






























Interactive Weather Map New forecast layout! Learn more

10-Day Weather Forecast

Advertisements
Track Severe Weather on mobile